This is the latest recevied weather packets stored in our database for station/object IU5JAE-13. If no packets are shown the sender has not sent any weather packets the latest 10 day(s).
| Time | Temp. | Humidity | Pressure | Rain* | Wind** | Luminosity | Snow |
|---|---|---|---|---|---|---|---|
| 1777906521 | 18.89° C | 55% | 1017.5 hPa | 0 mm | - | 156 W/m² | - |
| 1777905919 | 18.33° C | 56% | 1017.5 hPa | 0 mm | - | 180 W/m² | - |
| 1777905316 | 18.33° C | 57% | 1017.5 hPa | 0 mm | - | 191 W/m² | - |
| 1777904734 | 18.33° C | 53% | 1017.6 hPa | 0 mm | - | 209 W/m² | - |
| 1777904132 | 18.33° C | 53% | 1017.6 hPa | 0 mm | - | 228 W/m² | - |
| 1777903529 | 18.33° C | 51% | 1017.6 hPa | 0 mm | - | 227 W/m² | - |
| 1777902927 | 18.89° C | 51% | 1017.8 hPa | 0 mm | - | 242 W/m² | - |
| 1777902325 | 18.89° C | 50% | 1018 hPa | 0 mm | - | 244 W/m² | - |
| 1777901722 | 18.89° C | 50% | 1018 hPa | 0 mm | - | 250 W/m² | - |
| 1777901120 | 18.89° C | 48% | 1018 hPa | 0 mm | - | 388 W/m² | - |
| 1777900517 | 18.89° C | 48% | 1018 hPa | 0 mm | - | 438 W/m² | - |
| 1777899935 | 19.44° C | 45% | 1018.2 hPa | 0 mm | - | 440 W/m² | - |
| 1777899333 | 19.44° C | 44% | 1018.2 hPa | 0 mm | - | 513 W/m² | - |
| 1777898730 | 19.44° C | 45% | 1018.2 hPa | 0 mm | - | 664 W/m² | - |
| 1777898128 | 19.44° C | 44% | 1018.3 hPa | 0 mm | - | 633 W/m² | - |
| 1777897525 | 19.44° C | 43% | 1018.3 hPa | 0 mm | - | 565 W/m² | - |
| 1777896923 | 20° C | 42% | 1018.2 hPa | 0 mm | - | 619 W/m² | - |
| 1777896320 | 18.89° C | 44% | 1018.3 hPa | 0 mm | - | 542 W/m² | - |
| 1777895718 | 18.89° C | 44% | 1018.4 hPa | 0 mm | - | 444 W/m² | - |
| 1777895116 | 18.89° C | 44% | 1018.5 hPa | 0 mm | - | 528 W/m² | - |
| 1777894533 | 18.89° C | 43% | 1018.5 hPa | 0 mm | - | 485 W/m² | - |
| 1777893931 | 18.89° C | 44% | 1018.6 hPa | 0 mm | - | 681 W/m² | - |
| 1777893329 | 18.89° C | 45% | 1018.6 hPa | 0 mm | - | 638 W/m² | - |
| 1777892726 | 17.78° C | 46% | 1018.7 hPa | 0 mm | - | 563 W/m² | - |
| 1777892124 | 17.78° C | 45% | 1018.7 hPa | 0 mm | - | 443 W/m² | - |
* Rain latest hour (hover to see other rain measurements)
** Current wind speed in m/s (hover to see current wind gust speed)